sensor_id;sensor_type;location;lat;lon;timestamp;P1;durP1;ratioP1;P2;durP2;ratioP2
20731;SDS011;10527;52.124;5.196;2023-03-21T00:02:04;10.27;;;9.17;;
20731;SDS011;10527;52.124;5.196;2023-03-21T00:04:31;9.90;;;8.90;;
20731;SDS011;10527;52.124;5.196;2023-03-21T00:07:16;9.20;;;8.20;;
20731;SDS011;10527;52.124;5.196;2023-03-21T00:09:43;10.37;;;8.53;;
20731;SDS011;10527;52.124;5.196;2023-03-21T00:12:12;12.33;;;8.73;;
20731;SDS011;10527;52.124;5.196;2023-03-21T00:14:39;9.67;;;8.23;;
20731;SDS011;10527;52.124;5.196;2023-03-21T00:17:06;9.07;;;7.77;;
20731;SDS011;10527;52.124;5.196;2023-03-21T00:19:33;10.17;;;8.17;;
20731;SDS011;10527;52.124;5.196;2023-03-21T00:22:03;8.70;;;7.90;;
20731;SDS011;10527;52.124;5.196;2023-03-21T00:24:34;9.30;;;8.27;;
20731;SDS011;10527;52.124;5.196;2023-03-21T00:27:02;8.93;;;8.00;;
20731;SDS011;10527;52.124;5.196;2023-03-21T00:29:49;9.37;;;8.33;;
20731;SDS011;10527;52.124;5.196;2023-03-21T00:32:17;10.50;;;8.17;;
20731;SDS011;10527;52.124;5.196;2023-03-21T00:34:46;13.50;;;8.93;;
20731;SDS011;10527;52.124;5.196;2023-03-21T00:37:35;9.83;;;8.60;;
20731;SDS011;10527;52.124;5.196;2023-03-21T00:40:02;10.00;;;8.30;;
20731;SDS011;10527;52.124;5.196;2023-03-21T00:42:50;9.33;;;8.30;;
20731;SDS011;10527;52.124;5.196;2023-03-21T00:45:17;10.83;;;9.00;;
20731;SDS011;10527;52.124;5.196;2023-03-21T00:47:44;11.13;;;9.30;;
20731;SDS011;10527;52.124;5.196;2023-03-21T00:50:11;9.97;;;8.87;;
20731;SDS011;10527;52.124;5.196;2023-03-21T00:52:38;9.73;;;8.73;;
20731;SDS011;10527;52.124;5.196;2023-03-21T00:55:08;8.77;;;7.87;;
20731;SDS011;10527;52.124;5.196;2023-03-21T00:57:55;9.67;;;7.67;;
20731;SDS011;10527;52.124;5.196;2023-03-21T01:00:27;9.30;;;8.30;;
20731;SDS011;10527;52.124;5.196;2023-03-21T01:02:56;9.67;;;8.33;;
20731;SDS011;10527;52.124;5.196;2023-03-21T01:05:39;8.53;;;7.63;;
20731;SDS011;10527;52.124;5.196;2023-03-21T01:08:32;9.10;;;8.17;;
20731;SDS011;10527;52.124;5.196;2023-03-21T01:11:20;9.50;;;8.50;;
20731;SDS011;10527;52.124;5.196;2023-03-21T01:14:09;9.57;;;8.57;;
20731;SDS011;10527;52.124;5.196;2023-03-21T01:16:48;8.83;;;7.93;;
20731;SDS011;10527;52.124;5.196;2023-03-21T01:19:20;8.50;;;7.70;;
20731;SDS011;10527;52.124;5.196;2023-03-21T01:22:14;10.33;;;8.60;;
20731;SDS011;10527;52.124;5.196;2023-03-21T01:24:41;10.47;;;9.37;;
20731;SDS011;10527;52.124;5.196;2023-03-21T01:27:19;10.10;;;9.10;;
20731;SDS011;10527;52.124;5.196;2023-03-21T01:29:45;11.97;;;9.80;;
20731;SDS011;10527;52.124;5.196;2023-03-21T01:32:12;11.73;;;9.40;;
20731;SDS011;10527;52.124;5.196;2023-03-21T01:34:39;11.70;;;9.97;;
20731;SDS011;10527;52.124;5.196;2023-03-21T01:37:06;12.67;;;11.47;;
20731;SDS011;10527;52.124;5.196;2023-03-21T01:39:33;13.03;;;11.73;;
20731;SDS011;10527;52.124;5.196;2023-03-21T01:42:00;13.33;;;11.90;;
20731;SDS011;10527;52.124;5.196;2023-03-21T01:44:27;13.50;;;11.43;;
20731;SDS011;10527;52.124;5.196;2023-03-21T01:46:54;13.53;;;11.70;;
20731;SDS011;10527;52.124;5.196;2023-03-21T01:49:39;14.17;;;11.67;;
20731;SDS011;10527;52.124;5.196;2023-03-21T01:52:14;14.17;;;12.03;;
20731;SDS011;10527;52.124;5.196;2023-03-21T01:55:03;13.33;;;11.33;;
20731;SDS011;10527;52.124;5.196;2023-03-21T01:57:39;14.47;;;11.10;;
20731;SDS011;10527;52.124;5.196;2023-03-21T02:00:30;14.25;;;10.98;;
20731;SDS011;10527;52.124;5.196;2023-03-21T02:02:59;15.20;;;11.97;;
20731;SDS011;10527;52.124;5.196;2023-03-21T02:08:39;15.30;;;13.43;;
20731;SDS011;10527;52.124;5.196;2023-03-21T02:11:07;18.20;;;15.13;;
20731;SDS011;10527;52.124;5.196;2023-03-21T02:13:36;15.13;;;11.60;;
20731;SDS011;10527;52.124;5.196;2023-03-21T02:22:58;16.80;;;12.57;;
20731;SDS011;10527;52.124;5.196;2023-03-21T02:40:15;19.83;;;12.43;;
20731;SDS011;10527;52.124;5.196;2023-03-21T02:42:52;16.87;;;11.70;;
20731;SDS011;10527;52.124;5.196;2023-03-21T02:45:44;14.27;;;11.10;;
20731;SDS011;10527;52.124;5.196;2023-03-21T02:48:38;14.53;;;11.13;;
20731;SDS011;10527;52.124;5.196;2023-03-21T02:51:21;17.70;;;12.27;;
20731;SDS011;10527;52.124;5.196;2023-03-21T02:53:57;14.80;;;11.37;;
20731;SDS011;10527;52.124;5.196;2023-03-21T02:56:55;13.83;;;10.90;;
20731;SDS011;10527;52.124;5.196;2023-03-21T02:59:25;15.40;;;11.37;;
20731;SDS011;10527;52.124;5.196;2023-03-21T03:01:54;17.70;;;12.53;;
20731;SDS011;10527;52.124;5.196;2023-03-21T03:04:24;14.77;;;11.07;;
20731;SDS011;10527;52.124;5.196;2023-03-21T03:10:20;15.03;;;10.77;;
20731;SDS011;10527;52.124;5.196;2023-03-21T03:18:35;18.87;;;12.67;;
20731;SDS011;10527;52.124;5.196;2023-03-21T03:21:27;14.37;;;10.00;;
20731;SDS011;10527;52.124;5.196;2023-03-21T03:24:25;13.10;;;9.53;;
20731;SDS011;10527;52.124;5.196;2023-03-21T03:30:08;12.60;;;9.40;;
20731;SDS011;10527;52.124;5.196;2023-03-21T03:32:43;11.73;;;8.90;;
20731;SDS011;10527;52.124;5.196;2023-03-21T03:35:16;12.87;;;8.80;;
20731;SDS011;10527;52.124;5.196;2023-03-21T03:38:03;10.67;;;7.93;;
20731;SDS011;10527;52.124;5.196;2023-03-21T03:40:42;11.63;;;8.37;;
20731;SDS011;10527;52.124;5.196;2023-03-21T03:43:55;10.30;;;7.30;;
20731;SDS011;10527;52.124;5.196;2023-03-21T03:46:47;10.80;;;8.23;;
20731;SDS011;10527;52.124;5.196;2023-03-21T03:49:33;8.97;;;7.87;;
20731;SDS011;10527;52.124;5.196;2023-03-21T03:52:17;15.03;;;8.03;;
20731;SDS011;10527;52.124;5.196;2023-03-21T03:54:54;11.17;;;7.50;;
20731;SDS011;10527;52.124;5.196;2023-03-21T03:57:22;9.83;;;7.03;;
20731;SDS011;10527;52.124;5.196;2023-03-21T04:00:11;10.20;;;6.97;;
20731;SDS011;10527;52.124;5.196;2023-03-21T04:03:01;9.97;;;7.23;;
20731;SDS011;10527;52.124;5.196;2023-03-21T04:05:28;10.33;;;7.40;;
20731;SDS011;10527;52.124;5.196;2023-03-21T04:07:58;12.60;;;7.50;;
20731;SDS011;10527;52.124;5.196;2023-03-21T04:10:25;9.37;;;6.90;;
20731;SDS011;10527;52.124;5.196;2023-03-21T04:12:52;9.67;;;7.60;;
20731;SDS011;10527;52.124;5.196;2023-03-21T04:15:19;10.70;;;7.40;;
20731;SDS011;10527;52.124;5.196;2023-03-21T04:17:46;10.60;;;7.23;;
20731;SDS011;10527;52.124;5.196;2023-03-21T04:20:13;10.27;;;7.43;;
20731;SDS011;10527;52.124;5.196;2023-03-21T04:22:55;10.73;;;7.00;;
20731;SDS011;10527;52.124;5.196;2023-03-21T04:25:22;9.90;;;7.43;;
20731;SDS011;10527;52.124;5.196;2023-03-21T04:27:59;13.23;;;8.10;;
20731;SDS011;10527;52.124;5.196;2023-03-21T04:30:26;12.03;;;8.70;;
20731;SDS011;10527;52.124;5.196;2023-03-21T04:32:53;13.17;;;9.20;;
20731;SDS011;10527;52.124;5.196;2023-03-21T04:35:22;12.90;;;8.90;;
20731;SDS011;10527;52.124;5.196;2023-03-21T04:37:50;12.23;;;9.00;;
20731;SDS011;10527;52.124;5.196;2023-03-21T04:40:17;12.97;;;9.17;;
20731;SDS011;10527;52.124;5.196;2023-03-21T04:42:45;17.07;;;10.60;;
20731;SDS011;10527;52.124;5.196;2023-03-21T04:45:13;13.93;;;10.13;;
20731;SDS011;10527;52.124;5.196;2023-03-21T04:48:01;17.20;;;10.70;;
20731;SDS011;10527;52.124;5.196;2023-03-21T04:50:27;16.73;;;11.00;;
20731;SDS011;10527;52.124;5.196;2023-03-21T04:52:57;15.50;;;11.63;;
20731;SDS011;10527;52.124;5.196;2023-03-21T04:55:26;16.57;;;10.93;;
20731;SDS011;10527;52.124;5.196;2023-03-21T04:58:02;13.57;;;10.77;;
20731;SDS011;10527;52.124;5.196;2023-03-21T05:00:30;14.97;;;11.03;;
20731;SDS011;10527;52.124;5.196;2023-03-21T05:02:57;13.63;;;10.40;;
20731;SDS011;10527;52.124;5.196;2023-03-21T05:05:25;13.27;;;10.00;;
20731;SDS011;10527;52.124;5.196;2023-03-21T05:07:53;16.57;;;10.70;;
20731;SDS011;10527;52.124;5.196;2023-03-21T05:10:20;16.67;;;11.43;;
20731;SDS011;10527;52.124;5.196;2023-03-21T05:12:46;14.40;;;9.83;;
20731;SDS011;10527;52.124;5.196;2023-03-21T05:15:13;15.13;;;9.30;;
20731;SDS011;10527;52.124;5.196;2023-03-21T05:17:40;14.77;;;9.40;;
20731;SDS011;10527;52.124;5.196;2023-03-21T05:20:08;17.17;;;9.53;;
20731;SDS011;10527;52.124;5.196;2023-03-21T05:22:36;16.90;;;9.73;;
20731;SDS011;10527;52.124;5.196;2023-03-21T05:25:11;12.07;;;9.23;;
20731;SDS011;10527;52.124;5.196;2023-03-21T05:27:38;14.00;;;9.20;;
20731;SDS011;10527;52.124;5.196;2023-03-21T05:30:14;13.00;;;8.73;;
20731;SDS011;10527;52.124;5.196;2023-03-21T05:32:43;14.73;;;9.50;;
20731;SDS011;10527;52.124;5.196;2023-03-21T05:35:10;14.73;;;9.27;;
20731;SDS011;10527;52.124;5.196;2023-03-21T05:37:38;15.17;;;10.27;;
20731;SDS011;10527;52.124;5.196;2023-03-21T05:40:04;15.47;;;9.77;;
20731;SDS011;10527;52.124;5.196;2023-03-21T05:42:32;15.07;;;10.03;;
20731;SDS011;10527;52.124;5.196;2023-03-21T05:45:03;13.57;;;9.27;;
20731;SDS011;10527;52.124;5.196;2023-03-21T05:47:30;15.80;;;9.60;;
20731;SDS011;10527;52.124;5.196;2023-03-21T05:49:58;13.23;;;8.90;;
20731;SDS011;10527;52.124;5.196;2023-03-21T05:52:24;18.07;;;9.40;;
20731;SDS011;10527;52.124;5.196;2023-03-21T05:54:51;15.73;;;10.53;;
20731;SDS011;10527;52.124;5.196;2023-03-21T05:57:18;15.40;;;10.20;;
20731;SDS011;10527;52.124;5.196;2023-03-21T05:59:45;14.37;;;9.63;;
20731;SDS011;10527;52.124;5.196;2023-03-21T06:02:12;13.17;;;9.03;;
20731;SDS011;10527;52.124;5.196;2023-03-21T06:04:38;15.50;;;9.37;;
20731;SDS011;10527;52.124;5.196;2023-03-21T06:07:05;15.63;;;9.33;;
20731;SDS011;10527;52.124;5.196;2023-03-21T06:09:32;13.03;;;9.30;;
20731;SDS011;10527;52.124;5.196;2023-03-21T06:11:59;14.13;;;9.60;;
20731;SDS011;10527;52.124;5.196;2023-03-21T06:14:26;13.07;;;9.03;;
20731;SDS011;10527;52.124;5.196;2023-03-21T06:16:57;14.80;;;9.00;;
20731;SDS011;10527;52.124;5.196;2023-03-21T06:19:24;10.17;;;8.43;;
20731;SDS011;10527;52.124;5.196;2023-03-21T06:21:51;12.63;;;8.50;;
20731;SDS011;10527;52.124;5.196;2023-03-21T06:24:23;11.37;;;7.97;;
20731;SDS011;10527;52.124;5.196;2023-03-21T06:26:51;17.13;;;9.67;;
20731;SDS011;10527;52.124;5.196;2023-03-21T06:29:18;13.57;;;8.47;;
20731;SDS011;10527;52.124;5.196;2023-03-21T06:31:46;13.80;;;8.77;;
20731;SDS011;10527;52.124;5.196;2023-03-21T06:34:13;15.27;;;8.23;;
20731;SDS011;10527;52.124;5.196;2023-03-21T06:36:40;11.50;;;7.47;;
20731;SDS011;10527;52.124;5.196;2023-03-21T06:39:17;13.97;;;8.13;;
20731;SDS011;10527;52.124;5.196;2023-03-21T06:41:43;12.70;;;7.90;;
20731;SDS011;10527;52.124;5.196;2023-03-21T06:44:10;10.87;;;7.27;;
20731;SDS011;10527;52.124;5.196;2023-03-21T06:46:37;12.20;;;7.90;;
20731;SDS011;10527;52.124;5.196;2023-03-21T06:49:04;15.40;;;8.17;;
20731;SDS011;10527;52.124;5.196;2023-03-21T06:51:31;11.37;;;6.87;;
20731;SDS011;10527;52.124;5.196;2023-03-21T06:53:58;12.27;;;7.60;;
20731;SDS011;10527;52.124;5.196;2023-03-21T06:56:25;11.20;;;7.27;;
20731;SDS011;10527;52.124;5.196;2023-03-21T06:58:52;10.80;;;7.37;;
20731;SDS011;10527;52.124;5.196;2023-03-21T07:01:21;12.80;;;7.57;;
20731;SDS011;10527;52.124;5.196;2023-03-21T07:03:48;12.10;;;7.30;;
20731;SDS011;10527;52.124;5.196;2023-03-21T07:06:14;13.13;;;7.23;;
20731;SDS011;10527;52.124;5.196;2023-03-21T07:08:42;12.27;;;6.77;;
20731;SDS011;10527;52.124;5.196;2023-03-21T07:11:08;9.97;;;6.73;;
20731;SDS011;10527;52.124;5.196;2023-03-21T07:13:35;11.40;;;6.57;;
20731;SDS011;10527;52.124;5.196;2023-03-21T07:16:02;10.80;;;6.30;;
20731;SDS011;10527;52.124;5.196;2023-03-21T07:18:30;10.70;;;6.50;;
20731;SDS011;10527;52.124;5.196;2023-03-21T07:20:57;12.63;;;6.87;;
20731;SDS011;10527;52.124;5.196;2023-03-21T07:23:26;13.17;;;6.33;;
20731;SDS011;10527;52.124;5.196;2023-03-21T07:25:54;10.97;;;6.80;;
20731;SDS011;10527;52.124;5.196;2023-03-21T07:28:21;8.97;;;6.13;;
20731;SDS011;10527;52.124;5.196;2023-03-21T07:30:51;11.47;;;6.20;;
20731;SDS011;10527;52.124;5.196;2023-03-21T07:33:22;9.67;;;5.63;;
20731;SDS011;10527;52.124;5.196;2023-03-21T07:35:51;10.17;;;5.57;;
20731;SDS011;10527;52.124;5.196;2023-03-21T07:38:20;12.40;;;6.00;;
20731;SDS011;10527;52.124;5.196;2023-03-21T07:40:49;10.57;;;5.83;;
20731;SDS011;10527;52.124;5.196;2023-03-21T07:43:17;11.13;;;6.50;;
20731;SDS011;10527;52.124;5.196;2023-03-21T07:45:44;13.73;;;6.80;;
20731;SDS011;10527;52.124;5.196;2023-03-21T07:48:11;12.90;;;6.50;;
20731;SDS011;10527;52.124;5.196;2023-03-21T07:50:39;13.50;;;6.70;;
20731;SDS011;10527;52.124;5.196;2023-03-21T07:53:06;11.03;;;5.80;;
20731;SDS011;10527;52.124;5.196;2023-03-21T07:55:34;11.17;;;6.10;;
20731;SDS011;10527;52.124;5.196;2023-03-21T07:58:03;14.83;;;6.40;;
20731;SDS011;10527;52.124;5.196;2023-03-21T08:00:30;10.17;;;6.90;;
20731;SDS011;10527;52.124;5.196;2023-03-21T08:02:57;12.33;;;6.33;;
20731;SDS011;10527;52.124;5.196;2023-03-21T08:05:32;11.33;;;5.83;;
20731;SDS011;10527;52.124;5.196;2023-03-21T08:08:02;12.53;;;6.07;;
20731;SDS011;10527;52.124;5.196;2023-03-21T08:10:31;13.97;;;7.07;;
20731;SDS011;10527;52.124;5.196;2023-03-21T08:12:59;9.37;;;5.83;;
20731;SDS011;10527;52.124;5.196;2023-03-21T08:15:26;10.50;;;5.57;;
20731;SDS011;10527;52.124;5.196;2023-03-21T08:17:53;11.10;;;6.60;;
20731;SDS011;10527;52.124;5.196;2023-03-21T08:20:20;13.17;;;7.70;;
20731;SDS011;10527;52.124;5.196;2023-03-21T08:22:48;13.63;;;6.43;;
20731;SDS011;10527;52.124;5.196;2023-03-21T08:25:17;11.05;;;6.60;;
20731;SDS011;10527;52.124;5.196;2023-03-21T08:27:47;11.87;;;6.27;;
20731;SDS011;10527;52.124;5.196;2023-03-21T08:30:16;9.17;;;6.07;;
20731;SDS011;10527;52.124;5.196;2023-03-21T08:32:48;9.77;;;6.23;;
20731;SDS011;10527;52.124;5.196;2023-03-21T08:35:16;14.60;;;6.73;;
20731;SDS011;10527;52.124;5.196;2023-03-21T08:37:45;10.47;;;5.57;;
20731;SDS011;10527;52.124;5.196;2023-03-21T08:40:14;10.93;;;5.95;;
20731;SDS011;10527;52.124;5.196;2023-03-21T08:42:44;11.83;;;6.43;;
20731;SDS011;10527;52.124;5.196;2023-03-21T08:45:12;7.87;;;5.47;;
20731;SDS011;10527;52.124;5.196;2023-03-21T08:47:42;12.47;;;5.67;;
20731;SDS011;10527;52.124;5.196;2023-03-21T08:50:10;9.47;;;5.77;;
20731;SDS011;10527;52.124;5.196;2023-03-21T08:52:41;9.63;;;5.67;;
20731;SDS011;10527;52.124;5.196;2023-03-21T08:55:08;12.73;;;5.77;;
20731;SDS011;10527;52.124;5.196;2023-03-21T08:57:36;11.20;;;5.67;;
20731;SDS011;10527;52.124;5.196;2023-03-21T09:00:04;8.50;;;5.13;;
20731;SDS011;10527;52.124;5.196;2023-03-21T09:02:39;8.47;;;4.70;;
20731;SDS011;10527;52.124;5.196;2023-03-21T09:05:07;8.67;;;5.07;;
20731;SDS011;10527;52.124;5.196;2023-03-21T09:07:37;7.43;;;4.60;;
20731;SDS011;10527;52.124;5.196;2023-03-21T09:10:06;8.50;;;5.07;;
20731;SDS011;10527;52.124;5.196;2023-03-21T09:12:50;7.75;;;4.28;;
20731;SDS011;10527;52.124;5.196;2023-03-21T09:15:20;7.80;;;4.47;;
20731;SDS011;10527;52.124;5.196;2023-03-21T09:17:54;10.30;;;5.13;;
20731;SDS011;10527;52.124;5.196;2023-03-21T09:20:25;6.80;;;4.23;;
20731;SDS011;10527;52.124;5.196;2023-03-21T09:22:56;8.32;;;4.70;;
20731;SDS011;10527;52.124;5.196;2023-03-21T09:25:24;8.10;;;4.70;;
20731;SDS011;10527;52.124;5.196;2023-03-21T09:27:57;8.37;;;4.17;;
20731;SDS011;10527;52.124;5.196;2023-03-21T09:30:25;11.13;;;4.97;;
20731;SDS011;10527;52.124;5.196;2023-03-21T09:32:53;7.75;;;4.47;;
20731;SDS011;10527;52.124;5.196;2023-03-21T09:35:21;7.95;;;4.78;;
20731;SDS011;10527;52.124;5.196;2023-03-21T09:37:49;7.18;;;5.13;;
20731;SDS011;10527;52.124;5.196;2023-03-21T09:40:18;9.73;;;4.82;;
20731;SDS011;10527;52.124;5.196;2023-03-21T09:42:52;9.20;;;4.70;;
20731;SDS011;10527;52.124;5.196;2023-03-21T09:48:44;7.38;;;4.10;;
20731;SDS011;10527;52.124;5.196;2023-03-21T09:51:25;10.60;;;5.15;;
20731;SDS011;10527;52.124;5.196;2023-03-21T09:54:11;5.63;;;4.00;;
20731;SDS011;10527;52.124;5.196;2023-03-21T09:57:00;10.52;;;4.85;;
20731;SDS011;10527;52.124;5.196;2023-03-21T09:59:40;9.10;;;5.85;;
20731;SDS011;10527;52.124;5.196;2023-03-21T10:02:55;12.10;;;5.40;;
20731;SDS011;10527;52.124;5.196;2023-03-21T10:05:33;9.37;;;4.87;;
20731;SDS011;10527;52.124;5.196;2023-03-21T10:08:08;9.07;;;4.67;;
20731;SDS011;10527;52.124;5.196;2023-03-21T10:10:51;10.05;;;4.88;;
20731;SDS011;10527;52.124;5.196;2023-03-21T10:13:27;9.60;;;4.93;;
20731;SDS011;10527;52.124;5.196;2023-03-21T10:15:59;9.43;;;4.75;;
20731;SDS011;10527;52.124;5.196;2023-03-21T10:18:39;7.00;;;4.55;;
20731;SDS011;10527;52.124;5.196;2023-03-21T10:21:10;8.77;;;4.50;;
20731;SDS011;10527;52.124;5.196;2023-03-21T10:24:25;8.82;;;4.97;;
20731;SDS011;10527;52.124;5.196;2023-03-21T10:27:00;7.68;;;4.90;;
20731;SDS011;10527;52.124;5.196;2023-03-21T10:29:31;10.48;;;5.10;;
20731;SDS011;10527;52.124;5.196;2023-03-21T10:32:09;9.52;;;5.28;;
20731;SDS011;10527;52.124;5.196;2023-03-21T10:34:41;10.13;;;5.18;;
20731;SDS011;10527;52.124;5.196;2023-03-21T10:37:21;8.45;;;4.40;;
20731;SDS011;10527;52.124;5.196;2023-03-21T10:39:53;7.38;;;4.50;;
20731;SDS011;10527;52.124;5.196;2023-03-21T10:42:22;8.90;;;4.97;;
20731;SDS011;10527;52.124;5.196;2023-03-21T10:44:53;9.48;;;5.05;;
20731;SDS011;10527;52.124;5.196;2023-03-21T10:47:29;8.10;;;4.85;;
20731;SDS011;10527;52.124;5.196;2023-03-21T10:50:11;8.90;;;4.85;;
20731;SDS011;10527;52.124;5.196;2023-03-21T10:52:46;11.05;;;4.80;;
20731;SDS011;10527;52.124;5.196;2023-03-21T10:55:23;8.50;;;4.88;;
20731;SDS011;10527;52.124;5.196;2023-03-21T10:58:07;11.70;;;4.70;;
20731;SDS011;10527;52.124;5.196;2023-03-21T11:00:44;9.52;;;4.40;;
20731;SDS011;10527;52.124;5.196;2023-03-21T11:03:34;9.45;;;4.75;;
20731;SDS011;10527;52.124;5.196;2023-03-21T11:08:59;15.27;;;5.93;;
20731;SDS011;10527;52.124;5.196;2023-03-21T11:11:49;8.60;;;4.20;;
20731;SDS011;10527;52.124;5.196;2023-03-21T11:14:32;7.53;;;4.95;;
20731;SDS011;10527;52.124;5.196;2023-03-21T11:17:23;7.47;;;4.28;;
20731;SDS011;10527;52.124;5.196;2023-03-21T11:25:35;7.85;;;4.28;;
20731;SDS011;10527;52.124;5.196;2023-03-21T11:28:14;10.27;;;4.75;;
20731;SDS011;10527;52.124;5.196;2023-03-21T11:30:48;8.88;;;4.88;;
20731;SDS011;10527;52.124;5.196;2023-03-21T11:33:17;10.73;;;5.10;;
20731;SDS011;10527;52.124;5.196;2023-03-21T11:36:01;7.90;;;5.22;;
20731;SDS011;10527;52.124;5.196;2023-03-21T11:38:48;9.50;;;4.07;;
20731;SDS011;10527;52.124;5.196;2023-03-21T11:41:26;7.22;;;4.38;;
20731;SDS011;10527;52.124;5.196;2023-03-21T11:43:58;7.90;;;4.93;;
20731;SDS011;10527;52.124;5.196;2023-03-21T11:46:31;7.85;;;4.03;;
20731;SDS011;10527;52.124;5.196;2023-03-21T11:49:07;6.88;;;4.43;;
20731;SDS011;10527;52.124;5.196;2023-03-21T11:54:29;6.97;;;4.10;;
20731;SDS011;10527;52.124;5.196;2023-03-21T12:00:28;8.45;;;4.03;;
20731;SDS011;10527;52.124;5.196;2023-03-21T12:06:30;6.82;;;5.35;;
20731;SDS011;10527;52.124;5.196;2023-03-21T12:15:12;9.85;;;5.32;;
20731;SDS011;10527;52.124;5.196;2023-03-21T12:21:02;8.80;;;5.03;;
20731;SDS011;10527;52.124;5.196;2023-03-21T12:24:14;10.25;;;4.68;;
20731;SDS011;10527;52.124;5.196;2023-03-21T12:35:59;10.63;;;5.45;;
20731;SDS011;10527;52.124;5.196;2023-03-21T12:45:04;7.65;;;5.10;;
20731;SDS011;10527;52.124;5.196;2023-03-21T12:47:42;10.35;;;6.78;;
20731;SDS011;10527;52.124;5.196;2023-03-21T12:50:29;6.82;;;4.63;;
20731;SDS011;10527;52.124;5.196;2023-03-21T12:56:32;6.72;;;4.50;;
20731;SDS011;10527;52.124;5.196;2023-03-21T13:02:14;8.85;;;4.60;;
20731;SDS011;10527;52.124;5.196;2023-03-21T13:07:33;5.40;;;4.13;;
20731;SDS011;10527;52.124;5.196;2023-03-21T13:10:15;8.57;;;4.43;;
20731;SDS011;10527;52.124;5.196;2023-03-21T13:21:45;7.35;;;4.00;;
20731;SDS011;10527;52.124;5.196;2023-03-21T13:27:25;6.75;;;4.00;;
20731;SDS011;10527;52.124;5.196;2023-03-21T13:30:00;11.00;;;4.30;;
20731;SDS011;10527;52.124;5.196;2023-03-21T13:32:36;7.90;;;3.63;;
20731;SDS011;10527;52.124;5.196;2023-03-21T13:38:20;6.38;;;4.07;;
20731;SDS011;10527;52.124;5.196;2023-03-21T13:40:59;9.65;;;4.43;;
20731;SDS011;10527;52.124;5.196;2023-03-21T13:46:33;11.05;;;4.90;;
20731;SDS011;10527;52.124;5.196;2023-03-21T13:51:58;7.32;;;5.18;;
20731;SDS011;10527;52.124;5.196;2023-03-21T13:54:53;10.32;;;4.50;;
20731;SDS011;10527;52.124;5.196;2023-03-21T14:02:57;6.78;;;4.90;;
20731;SDS011;10527;52.124;5.196;2023-03-21T14:05:32;8.15;;;4.35;;
20731;SDS011;10527;52.124;5.196;2023-03-21T14:08:01;6.85;;;4.88;;
20731;SDS011;10527;52.124;5.196;2023-03-21T14:10:44;6.30;;;4.68;;
20731;SDS011;10527;52.124;5.196;2023-03-21T14:13:18;7.97;;;4.93;;
20731;SDS011;10527;52.124;5.196;2023-03-21T14:15:53;6.80;;;4.68;;
20731;SDS011;10527;52.124;5.196;2023-03-21T14:18:29;7.13;;;5.07;;
20731;SDS011;10527;52.124;5.196;2023-03-21T14:21:20;9.13;;;5.18;;
20731;SDS011;10527;52.124;5.196;2023-03-21T14:23:55;9.68;;;4.93;;
20731;SDS011;10527;52.124;5.196;2023-03-21T14:26:48;7.55;;;5.28;;
20731;SDS011;10527;52.124;5.196;2023-03-21T14:29:53;10.68;;;5.63;;
20731;SDS011;10527;52.124;5.196;2023-03-21T14:32:17;7.68;;;4.72;;
20731;SDS011;10527;52.124;5.196;2023-03-21T14:34:49;8.15;;;5.50;;
20731;SDS011;10527;52.124;5.196;2023-03-21T14:37:32;12.63;;;6.82;;
20731;SDS011;10527;52.124;5.196;2023-03-21T14:40:07;7.88;;;5.05;;
20731;SDS011;10527;52.124;5.196;2023-03-21T14:42:48;5.60;;;4.70;;
20731;SDS011;10527;52.124;5.196;2023-03-21T14:47:55;8.27;;;6.13;;
20731;SDS011;10527;52.124;5.196;2023-03-21T14:53:20;8.57;;;5.10;;
20731;SDS011;10527;52.124;5.196;2023-03-21T14:58:30;8.02;;;5.30;;
20731;SDS011;10527;52.124;5.196;2023-03-21T15:01:03;9.55;;;5.60;;
20731;SDS011;10527;52.124;5.196;2023-03-21T15:03:38;9.68;;;5.60;;
20731;SDS011;10527;52.124;5.196;2023-03-21T15:06:13;7.65;;;5.88;;
20731;SDS011;10527;52.124;5.196;2023-03-21T15:08:51;8.93;;;6.03;;
20731;SDS011;10527;52.124;5.196;2023-03-21T15:11:31;7.80;;;5.82;;
20731;SDS011;10527;52.124;5.196;2023-03-21T15:14:05;9.18;;;5.47;;
20731;SDS011;10527;52.124;5.196;2023-03-21T15:16:38;6.78;;;5.47;;
20731;SDS011;10527;52.124;5.196;2023-03-21T15:19:05;9.38;;;5.30;;
20731;SDS011;10527;52.124;5.196;2023-03-21T15:21:40;8.65;;;5.53;;
20731;SDS011;10527;52.124;5.196;2023-03-21T15:24:20;6.00;;;4.40;;
20731;SDS011;10527;52.124;5.196;2023-03-21T15:26:57;9.32;;;4.90;;
20731;SDS011;10527;52.124;5.196;2023-03-21T15:29:29;8.38;;;4.60;;
20731;SDS011;10527;52.124;5.196;2023-03-21T15:32:02;7.53;;;5.03;;
20731;SDS011;10527;52.124;5.196;2023-03-21T15:34:33;6.78;;;3.78;;
20731;SDS011;10527;52.124;5.196;2023-03-21T15:37:05;6.20;;;4.43;;
20731;SDS011;10527;52.124;5.196;2023-03-21T15:39:39;6.07;;;4.35;;
20731;SDS011;10527;52.124;5.196;2023-03-21T15:44:57;7.47;;;3.78;;
20731;SDS011;10527;52.124;5.196;2023-03-21T15:47:40;6.72;;;3.67;;
20731;SDS011;10527;52.124;5.196;2023-03-21T15:53:15;7.97;;;4.85;;
20731;SDS011;10527;52.124;5.196;2023-03-21T15:55:48;8.75;;;4.72;;
20731;SDS011;10527;52.124;5.196;2023-03-21T15:58:40;8.07;;;5.20;;
20731;SDS011;10527;52.124;5.196;2023-03-21T16:01:17;6.82;;;4.68;;
20731;SDS011;10527;52.124;5.196;2023-03-21T16:03:48;6.38;;;4.50;;
20731;SDS011;10527;52.124;5.196;2023-03-21T16:06:28;7.50;;;4.30;;
20731;SDS011;10527;52.124;5.196;2023-03-21T16:09:05;6.72;;;4.50;;
20731;SDS011;10527;52.124;5.196;2023-03-21T16:11:47;9.30;;;5.00;;
20731;SDS011;10527;52.124;5.196;2023-03-21T16:14:19;8.32;;;4.93;;
20731;SDS011;10527;52.124;5.196;2023-03-21T16:16:49;6.40;;;4.00;;
20731;SDS011;10527;52.124;5.196;2023-03-21T16:19:16;6.22;;;4.32;;
20731;SDS011;10527;52.124;5.196;2023-03-21T16:21:43;5.28;;;3.70;;
20731;SDS011;10527;52.124;5.196;2023-03-21T16:24:11;9.55;;;3.60;;
20731;SDS011;10527;52.124;5.196;2023-03-21T16:26:48;6.25;;;3.65;;
20731;SDS011;10527;52.124;5.196;2023-03-21T16:29:18;4.97;;;3.05;;
20731;SDS011;10527;52.124;5.196;2023-03-21T16:31:46;5.65;;;3.30;;
20731;SDS011;10527;52.124;5.196;2023-03-21T16:34:15;11.77;;;3.00;;
20731;SDS011;10527;52.124;5.196;2023-03-21T16:36:42;3.95;;;2.63;;
20731;SDS011;10527;52.124;5.196;2023-03-21T16:39:22;7.00;;;2.88;;
20731;SDS011;10527;52.124;5.196;2023-03-21T16:41:53;4.60;;;2.80;;
20731;SDS011;10527;52.124;5.196;2023-03-21T16:44:20;2.40;;;2.20;;
20731;SDS011;10527;52.124;5.196;2023-03-21T16:46:47;4.97;;;2.30;;
20731;SDS011;10527;52.124;5.196;2023-03-21T16:49:19;5.00;;;2.40;;
20731;SDS011;10527;52.124;5.196;2023-03-21T16:51:51;3.80;;;2.35;;
20731;SDS011;10527;52.124;5.196;2023-03-21T16:54:20;3.95;;;2.42;;
20731;SDS011;10527;52.124;5.196;2023-03-21T16:56:50;3.13;;;2.75;;
20731;SDS011;10527;52.124;5.196;2023-03-21T16:59:20;4.00;;;2.90;;
20731;SDS011;10527;52.124;5.196;2023-03-21T17:01:47;6.15;;;2.70;;
20731;SDS011;10527;52.124;5.196;2023-03-21T17:04:15;5.53;;;2.80;;
20731;SDS011;10527;52.124;5.196;2023-03-21T17:06:47;7.68;;;2.83;;
20731;SDS011;10527;52.124;5.196;2023-03-21T17:09:18;3.65;;;2.45;;
20731;SDS011;10527;52.124;5.196;2023-03-21T17:11:49;4.05;;;2.28;;
20731;SDS011;10527;52.124;5.196;2023-03-21T17:14:16;5.88;;;3.75;;
20731;SDS011;10527;52.124;5.196;2023-03-21T17:16:44;6.90;;;3.22;;
20731;SDS011;10527;52.124;5.196;2023-03-21T17:19:15;6.13;;;3.13;;
20731;SDS011;10527;52.124;5.196;2023-03-21T17:21:44;6.70;;;3.45;;
20731;SDS011;10527;52.124;5.196;2023-03-21T17:24:12;8.25;;;3.53;;
20731;SDS011;10527;52.124;5.196;2023-03-21T17:26:38;4.68;;;4.00;;
20731;SDS011;10527;52.124;5.196;2023-03-21T17:29:06;4.63;;;3.80;;